Time;durP1;ratioP1;P1;durP2;ratioP2;P2;SDS_P1;SDS_P2;PMS_P1;PMS_P2;Temp;Humidity;BMP_temperature;BMP_pressure;BME280_temperature;BME280_humidity;BME280_pressure;Samples;Min_cycle;Max_cycle;Signal;HPM_P1;HPM_P2
2021/10/14 00:01:47;;;;;;;28.83;16.92;;;4.00;99.90;;;;;;4977335;28;20081;-94
2021/10/14 00:04:15;;;;;;;27.45;18.40;;;4.10;99.90;;;;;;4978764;28;20026;-92
2021/10/14 00:06:43;;;;;;;29.90;18.88;;;4.10;99.90;;;;;;4974752;28;20018;-92
2021/10/14 00:09:09;;;;;;;29.58;18.00;;;4.20;99.90;;;;;;4971565;28;20031;-92
2021/10/14 00:11:35;;;;;;;29.00;18.45;;;4.10;99.90;;;;;;4980961;28;20051;-92
2021/10/14 00:14:03;;;;;;;31.48;18.33;;;4.00;99.90;;;;;;4985377;28;20027;-90
2021/10/14 00:16:32;;;;;;;27.05;18.20;;;4.00;99.90;;;;;;4981077;28;20054;-91
2021/10/14 00:19:05;;;;;;;23.13;16.63;;;4.00;99.90;;;;;;4974731;28;20033;-92
2021/10/14 00:21:31;;;;;;;28.42;16.23;;;4.00;99.90;;;;;;4977687;28;20469;-92
2021/10/14 00:23:57;;;;;;;23.42;16.40;;;4.00;99.90;;;;;;4972158;28;20041;-93
2021/10/14 00:26:25;;;;;;;31.02;19.30;;;4.00;99.90;;;;;;4978660;28;20027;-94
2021/10/14 00:28:59;;;;;;;29.92;18.45;;;4.00;99.90;;;;;;4968441;28;20039;-93
2021/10/14 00:31:25;;;;;;;27.83;18.38;;;4.10;99.90;;;;;;4979862;28;20051;-93
2021/10/14 00:33:51;;;;;;;25.50;17.83;;;4.10;99.90;;;;;;4971490;28;20062;-94
2021/10/14 00:36:16;;;;;;;28.80;19.75;;;4.20;99.90;;;;;;4979215;28;20053;-92
2021/10/14 00:38:42;;;;;;;27.75;19.48;;;4.10;99.90;;;;;;4971739;28;20034;-90
2021/10/14 00:41:08;;;;;;;28.35;18.95;;;4.20;99.90;;;;;;4979014;28;20034;-94
2021/10/14 00:43:34;;;;;;;28.70;18.80;;;4.10;99.90;;;;;;4971290;28;20026;-93
2021/10/14 00:46:13;;;;;;;;;;;;;;;;;;;;;
2021/10/14 00:48:39;;;;;;;27.40;18.33;;;4.10;99.90;;;;;;4972787;28;20049;-91
2021/10/14 00:51:07;;;;;;;27.92;18.05;;;4.00;99.90;;;;;;4976308;28;20121;-91
2021/10/14 00:53:36;;;;;;;33.28;21.95;;;4.00;99.90;;;;;;4971791;28;20494;-92
2021/10/14 00:56:01;;;;;;;31.60;19.25;;;4.00;99.90;;;;;;4970549;28;20085;-93
2021/10/14 00:58:27;;;;;;;32.15;19.67;;;4.00;99.90;;;;;;4979404;28;20034;-93
2021/10/14 01:00:57;;;;;;;27.88;18.58;;;3.90;99.90;;;;;;4969326;28;20117;-96
2021/10/14 01:03:28;;;;;;;30.15;19.85;;;3.90;99.90;;;;;;4978534;28;20113;-90
2021/10/14 01:05:57;;;;;;;29.30;20.52;;;3.90;99.90;;;;;;4969630;28;20147;-92
2021/10/14 01:08:24;;;;;;;31.38;20.05;;;3.70;99.90;;;;;;4983357;28;20027;-92
2021/10/14 01:10:50;;;;;;;26.23;19.77;;;3.80;99.90;;;;;;4962254;28;20126;-94
2021/10/14 01:13:17;;;;;;;31.10;20.95;;;3.70;99.90;;;;;;4982302;28;20042;-93
2021/10/14 01:15:45;;;;;;;31.35;21.33;;;3.60;99.90;;;;;;4981151;28;20493;-93
2021/10/14 01:18:12;;;;;;;31.63;19.27;;;3.60;99.90;;;;;;4975903;28;20630;-92
2021/10/14 01:20:38;;;;;;;36.97;22.30;;;3.50;99.90;;;;;;4975524;28;20055;-91
2021/10/14 01:23:04;;;;;;;29.67;20.27;;;3.50;99.90;;;;;;4973389;28;20062;-92
2021/10/14 01:25:31;;;;;;;30.13;20.73;;;3.50;99.90;;;;;;4974094;28;20030;-95
2021/10/14 01:27:57;;;;;;;26.48;18.48;;;3.40;99.90;;;;;;4976091;28;20489;-94
2021/10/14 01:30:23;;;;;;;26.85;17.50;;;3.30;99.90;;;;;;4973566;28;20019;-91
2021/10/14 01:32:49;;;;;;;27.90;18.02;;;3.20;99.90;;;;;;4975142;28;20037;-92
2021/10/14 01:35:16;;;;;;;28.10;18.90;;;3.20;99.90;;;;;;4973533;28;20126;-93
2021/10/14 01:37:43;;;;;;;27.13;18.48;;;3.20;99.90;;;;;;4976678;28;20693;-93
2021/10/14 01:40:09;;;;;;;27.20;18.55;;;3.20;99.90;;;;;;4974118;28;20031;-92
2021/10/14 01:42:35;;;;;;;31.50;19.08;;;3.20;99.90;;;;;;4972267;28;20027;-92
2021/10/14 01:45:02;;;;;;;29.40;18.50;;;3.10;99.90;;;;;;4978052;28;20125;-95
2021/10/14 01:47:30;;;;;;;25.23;17.27;;;3.10;99.90;;;;;;4973412;28;20023;-94
2021/10/14 01:49:56;;;;;;;26.05;18.42;;;3.10;99.90;;;;;;4975794;28;20031;-93
2021/10/14 01:52:23;;;;;;;28.70;18.05;;;3.00;99.90;;;;;;4974278;28;20543;-94
2021/10/14 01:54:49;;;;;;;24.88;16.25;;;3.00;99.90;;;;;;4975918;28;20034;-93
2021/10/14 01:57:15;;;;;;;29.25;17.30;;;2.90;99.90;;;;;;4980650;28;20038;-94
2021/10/14 01:59:41;;;;;;;24.67;16.00;;;3.00;99.90;;;;;;4974632;28;20026;-93
2021/10/14 02:02:06;;;;;;;27.10;17.30;;;3.00;99.90;;;;;;4972227;28;20393;-92
2021/10/14 02:04:33;;;;;;;26.35;17.92;;;3.00;99.90;;;;;;4984808;28;20025;-92
2021/10/14 02:06:59;;;;;;;27.73;18.42;;;2.90;99.90;;;;;;4976349;28;20046;-94
2021/10/14 02:09:26;;;;;;;27.95;17.58;;;2.90;99.90;;;;;;4973151;28;20485;-94
2021/10/14 02:11:52;;;;;;;27.90;17.23;;;2.80;99.90;;;;;;4975650;28;20533;-94
2021/10/14 02:14:18;;;;;;;27.13;16.55;;;2.70;99.90;;;;;;4977958;28;20123;-94
2021/10/14 02:16:44;;;;;;;27.48;18.00;;;2.80;99.90;;;;;;4975593;28;20397;-93
2021/10/14 02:19:10;;;;;;;27.33;17.00;;;2.70;99.90;;;;;;4977927;28;20118;-93
2021/10/14 02:21:36;;;;;;;26.30;17.02;;;2.60;99.90;;;;;;4983811;28;20081;-94
2021/10/14 02:24:02;;;;;;;25.40;16.08;;;2.70;99.90;;;;;;4973576;28;20023;-93
2021/10/14 02:26:28;;;;;;;27.73;17.13;;;2.70;99.90;;;;;;4971935;28;20031;-92
2021/10/14 02:28:53;;;;;;;26.63;17.95;;;2.60;99.90;;;;;;4977288;28;20026;-92
2021/10/14 02:31:19;;;;;;;28.83;18.20;;;2.60;99.90;;;;;;4979332;28;20072;-93
2021/10/14 02:33:45;;;;;;;26.58;16.40;;;2.60;99.90;;;;;;4983059;28;20414;-93
2021/10/14 02:36:10;;;;;;;34.05;18.92;;;2.60;99.90;;;;;;4981364;28;20023;-92
2021/10/14 02:38:36;;;;;;;22.80;15.95;;;2.60;99.90;;;;;;4979188;28;20050;-93
2021/10/14 02:41:02;;;;;;;27.88;17.45;;;2.60;99.90;;;;;;4981797;28;20030;-93
2021/10/14 02:43:29;;;;;;;29.23;18.17;;;2.60;99.90;;;;;;4984969;28;20030;-94
2021/10/14 02:45:55;;;;;;;26.80;16.75;;;2.60;99.90;;;;;;4976711;28;20030;-92
2021/10/14 02:48:20;;;;;;;31.17;18.42;;;2.70;99.90;;;;;;4977935;28;20038;-92
2021/10/14 02:50:47;;;;;;;26.20;17.38;;;2.70;99.90;;;;;;4978288;28;20089;-92
2021/10/14 02:53:12;;;;;;;30.23;16.90;;;2.60;99.90;;;;;;4985835;28;20030;-92
2021/10/14 02:55:38;;;;;;;28.50;17.85;;;2.60;99.90;;;;;;4979796;28;20037;-93
2021/10/14 02:58:04;;;;;;;29.13;17.50;;;2.40;99.90;;;;;;4987395;28;20125;-93
2021/10/14 03:00:30;;;;;;;26.50;16.67;;;2.40;99.90;;;;;;4977901;28;20030;-91
2021/10/14 03:02:55;;;;;;;31.55;18.55;;;2.40;99.90;;;;;;4979739;28;20037;-92
2021/10/14 03:05:21;;;;;;;30.15;17.70;;;2.40;99.90;;;;;;4981819;28;20114;-93
2021/10/14 03:07:47;;;;;;;29.08;17.65;;;2.20;99.90;;;;;;4978884;28;20027;-91
2021/10/14 03:10:13;;;;;;;33.22;17.05;;;2.20;99.90;;;;;;4973366;28;20035;-93
2021/10/14 03:12:38;;;;;;;29.10;16.90;;;2.20;99.90;;;;;;4988819;28;20061;-93
2021/10/14 03:15:05;;;;;;;25.98;17.05;;;2.30;99.90;;;;;;4976372;28;20109;-91
2021/10/14 03:17:31;;;;;;;32.67;18.83;;;2.30;99.90;;;;;;4975124;28;20084;-92
2021/10/14 03:19:57;;;;;;;29.77;20.90;;;2.30;99.90;;;;;;4976071;28;20105;-94
2021/10/14 03:22:22;;;;;;;25.92;17.67;;;2.20;99.90;;;;;;4978211;28;20038;-92
2021/10/14 03:24:49;;;;;;;28.50;17.88;;;2.30;99.90;;;;;;4977837;28;20026;-93
2021/10/14 03:27:14;;;;;;;31.77;18.35;;;2.20;99.90;;;;;;4978015;28;20117;-93
2021/10/14 03:29:40;;;;;;;32.33;18.50;;;2.30;99.90;;;;;;4976001;28;20173;-93
2021/10/14 03:32:06;;;;;;;28.35;19.45;;;2.30;99.90;;;;;;4979808;28;20042;-93
2021/10/14 03:34:31;;;;;;;27.38;17.52;;;2.30;99.90;;;;;;4979367;28;20029;-93
2021/10/14 03:36:57;;;;;;;26.67;16.58;;;2.30;99.90;;;;;;4977759;28;20541;-92
2021/10/14 03:39:23;;;;;;;29.85;17.05;;;2.20;99.90;;;;;;4975873;28;20046;-93
2021/10/14 03:41:49;;;;;;;51.00;20.63;;;2.20;99.90;;;;;;4978513;28;20034;-93
2021/10/14 03:44:17;;;;;;;32.55;17.58;;;2.20;99.90;;;;;;4971945;28;20052;-93
2021/10/14 03:46:45;;;;;;;32.20;18.13;;;2.20;99.90;;;;;;4974192;28;20031;-90
2021/10/14 03:49:11;;;;;;;28.20;18.50;;;2.30;99.90;;;;;;4974298;28;20019;-91
2021/10/14 03:51:37;;;;;;;30.95;19.13;;;2.30;99.90;;;;;;4976464;28;20027;-92
2021/10/14 03:54:02;;;;;;;30.10;19.52;;;2.40;99.90;;;;;;4989427;28;20030;-92
2021/10/14 03:56:28;;;;;;;44.83;20.80;;;2.40;99.90;;;;;;4971644;28;20089;-92
2021/10/14 03:58:54;;;;;;;59.35;24.08;;;2.50;99.90;;;;;;4974393;28;20058;-93
2021/10/14 04:01:20;;;;;;;35.97;22.10;;;2.50;99.90;;;;;;4971966;28;20063;-94
2021/10/14 04:03:46;;;;;;;43.72;22.42;;;2.50;99.90;;;;;;4990264;28;20034;-92
2021/10/14 04:06:11;;;;;;;41.30;21.45;;;2.60;99.90;;;;;;4972332;28;20038;-92
2021/10/14 04:08:37;;;;;;;49.90;23.80;;;2.60;99.90;;;;;;4972073;28;20018;-91
2021/10/14 04:11:03;;;;;;;42.30;23.30;;;2.80;99.90;;;;;;4966168;28;20089;-92
2021/10/14 04:13:29;;;;;;;44.25;23.27;;;2.80;99.90;;;;;;4972758;28;20056;-93
2021/10/14 04:15:55;;;;;;;164.30;31.10;;;2.80;99.90;;;;;;4973776;28;20617;-91
2021/10/14 04:18:21;;;;;;;46.30;25.77;;;2.80;99.90;;;;;;4972275;28;20130;-92
2021/10/14 04:20:47;;;;;;;53.33;26.13;;;2.80;99.90;;;;;;4971560;28;20370;-93
2021/10/14 04:23:15;;;;;;;165.35;30.55;;;2.80;99.90;;;;;;4975002;28;20034;-93
2021/10/14 04:25:40;;;;;;;45.78;24.60;;;2.90;99.90;;;;;;4971648;28;20489;-92
2021/10/14 04:28:06;;;;;;;47.05;25.98;;;3.00;99.90;;;;;;4972396;28;20046;-92
2021/10/14 04:30:33;;;;;;;96.82;27.63;;;3.00;99.90;;;;;;4974161;28;20088;-94
2021/10/14 04:32:59;;;;;;;229.32;33.65;;;3.10;99.90;;;;;;4975243;28;20549;-90
2021/10/14 04:35:25;;;;;;;75.10;27.08;;;3.20;99.90;;;;;;4978924;28;20027;-93
2021/10/14 04:37:51;;;;;;;54.78;26.63;;;3.20;99.90;;;;;;4971089;28;20154;-93
2021/10/14 04:40:17;;;;;;;53.38;26.23;;;3.30;99.90;;;;;;4974481;28;20482;-92
2021/10/14 04:42:43;;;;;;;60.97;25.58;;;3.30;99.90;;;;;;4972169;28;20488;-91
2021/10/14 04:45:09;;;;;;;72.82;26.83;;;3.40;99.90;;;;;;4987343;28;20027;-91
2021/10/14 04:47:36;;;;;;;99.55;26.55;;;3.50;99.90;;;;;;4969875;28;20804;-91
2021/10/14 04:50:02;;;;;;;80.43;27.80;;;3.50;99.90;;;;;;4969443;28;20094;-90
2021/10/14 04:52:28;;;;;;;108.93;27.92;;;3.50;99.90;;;;;;4989523;28;20022;-92
2021/10/14 04:54:54;;;;;;;66.63;24.15;;;3.50;99.90;;;;;;4972279;28;20477;-92
2021/10/14 04:57:20;;;;;;;110.75;26.02;;;3.60;99.90;;;;;;4975372;28;20522;-92
2021/10/14 04:59:45;;;;;;;93.03;26.02;;;3.60;99.90;;;;;;4970852;28;20034;-92
2021/10/14 05:02:11;;;;;;;121.55;26.52;;;3.70;99.90;;;;;;4971638;28;20069;-92
2021/10/14 05:04:37;;;;;;;61.05;23.77;;;3.60;99.90;;;;;;4972322;28;20042;-92
2021/10/14 05:07:03;;;;;;;81.63;23.70;;;3.70;99.90;;;;;;4972237;28;20548;-92
2021/10/14 05:09:28;;;;;;;65.97;24.48;;;3.70;99.90;;;;;;4964714;28;20469;-91
2021/10/14 05:11:54;;;;;;;109.53;26.65;;;3.80;99.90;;;;;;4969621;28;20047;-93
2021/10/14 05:14:20;;;;;;;104.05;25.83;;;3.70;99.90;;;;;;4970831;28;20134;-92
2021/10/14 05:16:46;;;;;;;81.38;25.38;;;3.80;99.90;;;;;;4972520;28;20066;-90
2021/10/14 05:19:12;;;;;;;55.53;25.27;;;3.80;99.90;;;;;;4972609;28;20066;-92
2021/10/14 05:21:38;;;;;;;54.00;24.25;;;3.90;99.90;;;;;;4966608;28;20051;-91
2021/10/14 05:24:04;;;;;;;95.15;25.08;;;3.90;99.90;;;;;;4971294;28;20054;-91
2021/10/14 05:26:30;;;;;;;121.82;27.10;;;4.00;99.90;;;;;;4970274;28;20528;-91
2021/10/14 05:28:58;;;;;;;73.57;24.60;;;3.90;99.90;;;;;;4970676;28;20027;-90
2021/10/14 05:31:24;;;;;;;129.30;26.35;;;3.90;99.90;;;;;;4986131;28;20114;-91
2021/10/14 05:33:50;;;;;;;259.63;31.23;;;3.90;99.90;;;;;;4974515;28;20038;-90
2021/10/14 05:36:16;;;;;;;57.28;23.75;;;4.00;99.90;;;;;;4968483;28;20031;-89
2021/10/14 05:38:43;;;;;;;243.25;30.88;;;4.00;99.90;;;;;;4971839;28;20389;-91
2021/10/14 05:41:09;;;;;;;120.18;25.33;;;4.00;99.90;;;;;;4969943;28;20030;-90
2021/10/14 05:43:35;;;;;;;107.63;25.50;;;4.10;99.90;;;;;;4967353;28;20179;-90
2021/10/14 05:46:01;;;;;;;82.50;25.05;;;4.10;99.90;;;;;;4970329;28;20023;-91
2021/10/14 05:48:26;;;;;;;73.22;24.85;;;4.10;99.90;;;;;;4970974;28;20034;-92
2021/10/14 05:50:52;;;;;;;64.38;24.60;;;4.20;99.90;;;;;;4966237;28;20429;-92
2021/10/14 05:53:18;;;;;;;101.57;25.08;;;4.30;99.90;;;;;;4962023;28;20429;-91
2021/10/14 05:55:45;;;;;;;99.95;25.50;;;4.30;99.90;;;;;;4967838;28;20377;-90
2021/10/14 05:58:11;;;;;;;40.42;22.35;;;4.40;99.90;;;;;;4971307;28;20042;-91
2021/10/14 06:00:37;;;;;;;34.92;22.27;;;4.40;99.90;;;;;;4971830;28;20019;-91
2021/10/14 06:03:03;;;;;;;90.65;24.45;;;4.50;99.90;;;;;;4968943;28;20030;-89
2021/10/14 06:05:29;;;;;;;72.53;22.55;;;4.50;99.90;;;;;;4973204;28;20114;-90
2021/10/14 06:07:54;;;;;;;62.90;22.15;;;4.60;99.90;;;;;;4970767;28;20483;-89
2021/10/14 06:10:20;;;;;;;39.75;21.40;;;4.60;99.90;;;;;;4971291;28;20023;-89
2021/10/14 06:12:46;;;;;;;48.00;20.00;;;4.70;99.90;;;;;;4968758;28;20050;-89
2021/10/14 06:15:11;;;;;;;62.85;21.20;;;4.70;99.90;;;;;;4961519;28;20051;-90
2021/10/14 06:17:37;;;;;;;48.78;19.27;;;4.80;99.90;;;;;;4969193;28;20041;-90
2021/10/14 06:20:04;;;;;;;44.65;19.73;;;4.80;99.90;;;;;;4969466;28;20019;-89
2021/10/14 06:22:29;;;;;;;54.88;19.15;;;4.80;99.90;;;;;;4978068;28;20039;-88
2021/10/14 06:24:55;;;;;;;45.20;20.05;;;4.90;99.90;;;;;;4972193;28;20500;-89
2021/10/14 06:27:21;;;;;;;38.92;19.92;;;4.90;99.90;;;;;;4969460;28;20113;-89
2021/10/14 06:29:47;;;;;;;42.33;20.42;;;5.00;99.90;;;;;;4973253;28;20106;-89
2021/10/14 06:32:13;;;;;;;34.10;18.70;;;5.00;99.90;;;;;;4965552;28;20049;-90
2021/10/14 06:34:38;;;;;;;49.60;20.08;;;5.10;99.90;;;;;;4970360;28;20025;-89
2021/10/14 06:37:04;;;;;;;96.68;22.45;;;5.10;99.90;;;;;;4974539;28;20046;-88
2021/10/14 06:39:30;;;;;;;36.13;19.05;;;5.20;99.90;;;;;;4969800;28;20031;-89
2021/10/14 06:41:55;;;;;;;49.83;18.02;;;5.20;99.90;;;;;;4971556;28;20038;-90
2021/10/14 06:44:22;;;;;;;36.97;19.92;;;5.20;99.90;;;;;;4972542;28;20027;-90
2021/10/14 06:46:48;;;;;;;38.78;20.40;;;5.20;99.90;;;;;;4969073;28;20501;-89
2021/10/14 06:49:13;;;;;;;38.35;21.08;;;5.20;99.90;;;;;;4970714;28;20027;-89
2021/10/14 06:51:39;;;;;;;39.70;21.25;;;5.30;99.90;;;;;;4971578;28;20441;-91
2021/10/14 06:54:05;;;;;;;35.45;20.10;;;5.40;99.90;;;;;;4969874;28;20058;-91
2021/10/14 06:56:31;;;;;;;33.67;21.02;;;5.40;99.90;;;;;;4968820;28;20034;-91
2021/10/14 06:58:56;;;;;;;37.92;22.88;;;5.40;99.90;;;;;;4970054;28;20031;-89
2021/10/14 07:01:22;;;;;;;51.90;24.60;;;5.50;99.90;;;;;;4968543;28;20085;-91
2021/10/14 07:03:48;;;;;;;41.10;21.48;;;5.60;99.90;;;;;;4967327;28;20556;-90
2021/10/14 07:06:15;;;;;;;36.70;21.38;;;5.60;99.90;;;;;;4957142;28;20540;-89
2021/10/14 07:08:42;;;;;;;40.40;21.85;;;5.70;99.90;;;;;;4969272;28;20117;-90
2021/10/14 07:11:08;;;;;;;40.35;21.77;;;5.70;99.90;;;;;;4960004;28;20031;-89
2021/10/14 07:13:33;;;;;;;45.80;23.67;;;5.70;99.90;;;;;;4973397;28;20034;-90
2021/10/14 07:15:59;;;;;;;55.83;22.23;;;5.80;99.90;;;;;;4966947;28;20482;-89
2021/10/14 07:18:25;;;;;;;54.83;23.88;;;5.80;99.90;;;;;;4972460;28;20386;-88
2021/10/14 07:20:51;;;;;;;40.75;24.17;;;5.80;99.90;;;;;;4963654;28;20113;-90
2021/10/14 07:23:16;;;;;;;38.40;24.30;;;5.90;99.90;;;;;;4987233;28;20389;-88
2021/10/14 07:25:44;;;;;;;34.05;22.08;;;6.00;99.90;;;;;;4963811;28;20023;-91
2021/10/14 07:28:11;;;;;;;33.95;22.88;;;6.00;99.90;;;;;;4971828;28;20541;-89
2021/10/14 07:30:38;;;;;;;31.33;21.55;;;6.10;99.90;;;;;;4965848;28;20477;-89
2021/10/14 07:33:04;;;;;;;35.75;21.63;;;6.20;99.90;;;;;;4970101;28;20045;-89
2021/10/14 07:35:34;;;;;;;29.25;20.95;;;6.20;99.90;;;;;;4963685;28;20370;-88
2021/10/14 07:38:03;;;;;;;35.38;22.75;;;6.30;99.90;;;;;;4968580;28;20396;-91
2021/10/14 07:40:29;;;;;;;30.63;20.92;;;6.30;99.90;;;;;;4966019;28;20524;-91
2021/10/14 07:42:55;;;;;;;33.08;22.00;;;6.30;99.90;;;;;;4970367;28;20061;-91
2021/10/14 07:45:21;;;;;;;34.22;21.77;;;6.40;99.90;;;;;;4968915;28;20475;-89
2021/10/14 07:47:46;;;;;;;35.03;21.88;;;6.50;99.90;;;;;;4963646;28;20049;-89
2021/10/14 07:50:13;;;;;;;31.23;22.35;;;6.60;99.90;;;;;;4971297;28;20106;-91
2021/10/14 07:52:41;;;;;;;30.40;22.20;;;6.70;99.90;;;;;;4962473;28;20037;-90
2021/10/14 07:55:08;;;;;;;31.48;22.77;;;6.70;99.90;;;;;;4975111;28;20109;-89
2021/10/14 07:57:34;;;;;;;33.92;22.60;;;6.80;99.90;;;;;;4966528;28;20529;-90
2021/10/14 07:59:59;;;;;;;36.03;24.02;;;6.90;99.90;;;;;;4972218;28;20019;-92
2021/10/14 08:02:25;;;;;;;35.67;23.35;;;7.00;99.90;;;;;;4963960;28;20042;-90
2021/10/14 08:04:53;;;;;;;33.60;24.05;;;7.10;99.90;;;;;;4959758;28;20101;-90
2021/10/14 08:07:18;;;;;;;35.17;24.92;;;7.30;99.90;;;;;;4966154;28;20045;-90
2021/10/14 08:09:44;;;;;;;37.45;26.20;;;7.10;99.90;;;;;;4972307;28;20474;-90
2021/10/14 08:12:11;;;;;;;39.20;26.00;;;7.20;99.90;;;;;;4963794;28;20059;-90
2021/10/14 08:14:37;;;;;;;36.67;25.23;;;7.20;99.90;;;;;;4971925;28;20027;-92
2021/10/14 08:17:03;;;;;;;33.60;25.27;;;7.30;99.90;;;;;;4962499;28;20046;-90
2021/10/14 08:19:28;;;;;;;35.92;25.88;;;7.50;99.90;;;;;;4970960;28;20023;-89
2021/10/14 08:21:54;;;;;;;37.88;26.45;;;7.60;99.90;;;;;;4965457;28;20070;-90
2021/10/14 08:24:20;;;;;;;35.00;24.55;;;7.70;99.90;;;;;;4971977;28;20054;-89
2021/10/14 08:26:46;;;;;;;39.15;26.90;;;7.70;99.90;;;;;;4961292;28;20030;-88
2021/10/14 08:29:12;;;;;;;36.13;24.52;;;7.70;99.90;;;;;;4968769;28;20019;-91
2021/10/14 08:31:37;;;;;;;32.67;22.95;;;7.80;99.90;;;;;;4962908;28;20490;-91
2021/10/14 08:34:03;;;;;;;34.63;23.65;;;7.70;99.90;;;;;;4973023;28;20027;-90
2021/10/14 08:36:29;;;;;;;35.00;24.85;;;7.70;99.90;;;;;;4962781;28;20452;-91
2021/10/14 08:38:55;;;;;;;35.95;25.75;;;7.70;99.90;;;;;;4985284;28;20039;-88
2021/10/14 08:41:21;;;;;;;36.75;26.17;;;7.80;99.90;;;;;;4962580;28;20026;-89
2021/10/14 08:43:48;;;;;;;34.20;23.52;;;7.90;99.90;;;;;;4974462;28;20165;-90
2021/10/14 08:46:14;;;;;;;34.17;24.80;;;8.00;99.90;;;;;;4961637;28;20030;-88
2021/10/14 08:48:51;;;;;;;31.88;23.80;;;7.90;99.90;;;;;;4973106;28;20027;-93
2021/10/14 08:51:17;;;;;;;32.97;23.60;;;8.10;99.90;;;;;;4956181;28;20042;-89
2021/10/14 08:53:45;;;;;;;31.45;24.58;;;8.10;99.90;;;;;;4983712;28;20023;-92
2021/10/14 08:56:11;;;;;;;42.00;25.27;;;8.10;99.90;;;;;;4971629;28;20027;-90
2021/10/14 08:58:37;;;;;;;33.97;25.77;;;8.10;99.90;;;;;;4980557;28;20039;-88
2021/10/14 09:01:12;;;;;;;31.23;22.42;;;8.10;99.90;;;;;;4975395;28;20028;-90
2021/10/14 09:03:45;;;;;;;32.70;22.25;;;8.20;99.90;;;;;;4981424;28;20030;-91
2021/10/14 09:06:12;;;;;;;31.65;23.50;;;8.20;99.90;;;;;;4971286;28;20027;-90
2021/10/14 09:08:49;;;;;;;38.70;26.98;;;8.10;99.90;;;;;;4944441;28;20047;-89
2021/10/14 09:11:16;;;;;;;35.08;24.80;;;8.30;99.90;;;;;;4975262;28;20401;-90
2021/10/14 09:13:51;;;;;;;32.42;23.67;;;8.30;99.90;;;;;;4970781;28;20035;-90
2021/10/14 09:16:23;;;;;;;26.95;20.73;;;8.30;99.90;;;;;;4985890;28;20488;-92
2021/10/14 09:18:50;;;;;;;30.15;22.40;;;8.30;99.90;;;;;;4973937;28;20053;-89
2021/10/14 09:21:23;;;;;;;29.92;22.20;;;8.30;99.90;;;;;;4970190;28;20035;-93
2021/10/14 09:23:49;;;;;;;27.40;19.77;;;8.30;99.90;;;;;;4970189;28;20045;-92
2021/10/14 09:26:26;;;;;;;25.40;17.80;;;8.40;99.90;;;;;;4971651;28;20026;-90
2021/10/14 09:29:09;;;;;;;24.30;18.00;;;8.40;99.90;;;;;;4969107;28;20600;-89
2021/10/14 09:31:56;;;;;;;45.33;19.90;;;8.40;99.90;;;;;;4974029;28;20470;-91
2021/10/14 09:34:28;;;;;;;30.77;20.05;;;8.50;99.90;;;;;;4971385;28;20034;-90
2021/10/14 09:36:58;;;;;;;29.58;21.23;;;8.60;99.90;;;;;;4974964;28;20042;-90
2021/10/14 09:39:25;;;;;;;26.30;19.55;;;8.70;99.90;;;;;;4972324;28;20019;-90
2021/10/14 09:41:52;;;;;;;28.08;19.13;;;8.80;99.90;;;;;;4978890;28;20026;-92
2021/10/14 09:44:19;;;;;;;29.17;18.58;;;8.90;99.90;;;;;;4973679;28;20067;-92
2021/10/14 09:46:46;;;;;;;26.13;18.98;;;9.00;99.90;;;;;;4967414;28;20074;-89
2021/10/14 09:49:32;;;;;;;28.55;20.13;;;9.10;99.90;;;;;;4972664;28;20031;-91
2021/10/14 09:52:00;;;;;;;31.33;22.00;;;9.10;99.90;;;;;;4975684;28;20019;-91
2021/10/14 09:54:27;;;;;;;28.65;22.42;;;9.10;99.90;;;;;;4973397;28;20405;-89
2021/10/14 09:56:54;;;;;;;32.30;22.17;;;9.20;99.90;;;;;;4976451;28;20089;-90
2021/10/14 09:59:20;;;;;;;32.92;22.90;;;9.30;99.90;;;;;;4990537;28;20035;-91
2021/10/14 10:01:48;;;;;;;27.73;20.50;;;9.30;99.90;;;;;;4972850;28;20059;-88
2021/10/14 10:04:15;;;;;;;28.25;21.13;;;9.20;99.90;;;;;;4971568;28;20030;-90
2021/10/14 10:06:41;;;;;;;36.10;22.75;;;9.30;99.90;;;;;;4968707;28;20033;-93
2021/10/14 10:09:14;;;;;;;31.13;22.85;;;9.30;99.90;;;;;;4963929;28;20508;-90
2021/10/14 10:11:50;;;;;;;31.17;22.13;;;9.40;99.90;;;;;;4975241;28;20039;-92
2021/10/14 10:14:20;;;;;;;31.55;22.60;;;9.40;99.90;;;;;;4968933;28;20030;-91
2021/10/14 10:17:01;;;;;;;30.92;22.55;;;9.30;99.90;;;;;;4972429;28;20027;-89
2021/10/14 10:19:44;;;;;;;25.35;19.10;;;9.40;99.90;;;;;;4972672;28;20058;-90
2021/10/14 10:22:11;;;;;;;26.45;19.80;;;9.40;99.90;;;;;;4979028;28;20034;-88
2021/10/14 10:24:37;;;;;;;21.55;17.02;;;9.50;99.90;;;;;;4970446;28;20031;-90
2021/10/14 10:27:05;;;;;;;20.38;15.20;;;9.60;99.90;;;;;;4967662;28;20547;-89
2021/10/14 10:29:38;;;;;;;22.08;15.23;;;9.70;99.90;;;;;;4967990;28;20027;-89
2021/10/14 10:32:04;;;;;;;20.50;14.80;;;9.70;99.90;;;;;;4972207;28;20038;-88
2021/10/14 10:34:49;;;;;;;22.73;15.45;;;9.80;99.90;;;;;;4977782;28;20031;-90
2021/10/14 10:40:13;;;;;;;25.10;16.80;;;9.90;99.90;;;;;;4971128;28;20169;-92
2021/10/14 10:42:44;;;;;;;19.08;14.27;;;10.00;99.90;;;;;;4971729;28;20033;-90
2021/10/14 10:45:12;;;;;;;19.27;13.73;;;10.10;99.90;;;;;;4973127;28;20022;-91
2021/10/14 10:48:07;;;;;;;16.13;12.15;;;10.20;99.90;;;;;;4967654;28;20065;-89
2021/10/14 10:50:32;;;;;;;15.25;10.75;;;10.30;99.90;;;;;;4973453;28;20043;-92
2021/10/14 10:53:07;;;;;;;18.77;11.13;;;10.40;99.90;;;;;;4976375;28;20038;-87
2021/10/14 10:55:32;;;;;;;15.32;10.55;;;10.50;99.90;;;;;;4971910;28;20035;-88
2021/10/14 10:57:59;;;;;;;12.93;9.65;;;10.70;99.90;;;;;;4975695;28;20448;-90
2021/10/14 11:00:24;;;;;;;14.55;9.65;;;10.90;99.90;;;;;;4976836;28;20122;-88
2021/10/14 11:03:18;;;;;;;11.07;8.27;;;11.10;99.90;;;;;;4972427;28;20082;-92
2021/10/14 11:05:45;;;;;;;11.10;7.85;;;11.20;99.90;;;;;;4971952;28;20026;-90
2021/10/14 11:08:13;;;;;;;10.18;8.00;;;11.40;99.90;;;;;;4976127;28;20493;-88
2021/10/14 11:10:39;;;;;;;12.40;8.23;;;11.50;99.90;;;;;;4976361;28;20020;-91
2021/10/14 11:13:05;;;;;;;13.88;7.32;;;11.60;99.90;;;;;;4977696;28;20069;-87
2021/10/14 11:15:31;;;;;;;11.38;7.72;;;11.70;99.90;;;;;;4974854;28;20026;-91
2021/10/14 11:18:02;;;;;;;14.05;7.78;;;11.90;99.90;;;;;;4971090;28;20038;-90
2021/10/14 11:20:27;;;;;;;11.60;7.78;;;11.90;99.90;;;;;;4976279;28;20019;-92
2021/10/14 11:23:01;;;;;;;10.35;7.18;;;12.00;99.90;;;;;;4972631;28;20381;-91
2021/10/14 11:25:27;;;;;;;11.35;8.02;;;12.00;99.90;;;;;;4972750;28;20114;-89
2021/10/14 11:28:07;;;;;;;11.18;6.90;;;12.10;99.90;;;;;;4975257;28;20114;-89
2021/10/14 11:30:41;;;;;;;14.77;8.95;;;12.20;99.90;;;;;;4977329;28;20023;-89
2021/10/14 11:33:34;;;;;;;13.32;7.93;;;12.20;99.90;;;;;;4972468;28;20121;-92
2021/10/14 11:36:03;;;;;;;12.50;8.00;;;12.10;99.90;;;;;;4973267;28;20059;-93
2021/10/14 11:38:29;;;;;;;11.13;7.60;;;12.20;99.90;;;;;;4986068;28;20035;-90
2021/10/14 11:40:56;;;;;;;11.23;7.57;;;12.20;99.90;;;;;;4971555;28;20142;-89
2021/10/14 11:43:30;;;;;;;11.18;7.90;;;12.20;99.90;;;;;;4973478;28;20059;-90
2021/10/14 11:45:58;;;;;;;12.73;7.65;;;12.20;99.90;;;;;;4974979;28;20077;-88
2021/10/14 11:48:27;;;;;;;10.85;7.05;;;12.20;99.90;;;;;;4973001;28;20029;-90
2021/10/14 11:51:08;;;;;;;11.27;7.38;;;12.20;99.90;;;;;;4993180;28;20057;-88
2021/10/14 11:53:35;;;;;;;22.27;8.73;;;12.10;99.90;;;;;;4999266;28;20122;-87
2021/10/14 11:56:04;;;;;;;10.40;6.72;;;12.00;99.90;;;;;;4986821;28;20061;-87
2021/10/14 11:58:31;;;;;;;9.70;6.80;;;12.00;99.90;;;;;;4973164;28;20042;-89
2021/10/14 12:01:02;;;;;;;12.10;8.02;;;11.90;99.90;;;;;;4988580;28;20552;-87
2021/10/14 12:03:28;;;;;;;9.13;6.10;;;11.90;99.90;;;;;;4976867;28;20035;-90
2021/10/14 12:05:55;;;;;;;8.20;5.13;;;11.80;99.90;;;;;;4972405;28;20038;-92
2021/10/14 12:08:21;;;;;;;6.45;3.42;;;11.80;99.90;;;;;;4976422;28;20042;-88
2021/10/14 12:10:51;;;;;;;6.07;3.10;;;11.90;99.90;;;;;;4971555;28;20049;-88
2021/10/14 12:13:17;;;;;;;7.07;4.22;;;12.00;99.90;;;;;;4974372;28;20050;-89
2021/10/14 12:15:42;;;;;;;6.40;3.35;;;12.00;99.90;;;;;;4975596;28;20023;-91
2021/10/14 12:18:26;;;;;;;4.65;2.60;;;12.00;99.90;;;;;;4972810;28;20034;-93
2021/10/14 12:20:52;;;;;;;5.57;3.85;;;12.10;99.90;;;;;;4970722;28;20026;-89
2021/10/14 12:23:17;;;;;;;8.35;3.80;;;12.10;99.90;;;;;;4974587;28;20387;-87
2021/10/14 12:25:43;;;;;;;6.90;4.40;;;12.10;99.90;;;;;;4969619;28;20047;-90
2021/10/14 12:28:22;;;;;;;7.40;4.28;;;12.00;99.90;;;;;;4960367;28;20555;-88
2021/10/14 12:30:48;;;;;;;5.85;4.30;;;12.00;99.90;;;;;;4976524;28;20466;-90
2021/10/14 12:33:13;;;;;;;7.85;4.50;;;12.00;99.90;;;;;;4974408;28;20034;-89
2021/10/14 12:35:50;;;;;;;7.03;4.57;;;12.00;99.90;;;;;;4970840;28;20089;-88
2021/10/14 12:38:18;;;;;;;6.15;4.45;;;12.00;99.90;;;;;;4971850;28;20050;-90
2021/10/14 12:40:59;;;;;;;6.28;3.80;;;12.10;99.90;;;;;;4973619;28;20101;-91
2021/10/14 12:43:30;;;;;;;6.35;4.28;;;12.10;99.90;;;;;;4972103;28;20041;-90